• Join FlightAware (Why Join?)
  • Login
  • US Flag 
06:57PM EDT


 

Airport Tracker/Info


-or-


 

Live Flight TrackerFlight Track Log ✈ UAL252 ✈ 13-Jun-2013 ✈ KIAH - KDCA

Flight Track Log - Related Links

Times and Time Zones

All times are in EDT time to prevent confusion due to time zone crossing. See the UAL252 flight status page for this flight to view local times or setup timezone preferences in your user account.

Time Position Orientation Groundspeed Altitude Reporting Facility
EDT Latitude Longitude Course Direction KTS MPH feet Rate Location/Type
09:36PM 29.9594 -95.3414 30° Northeast 141 162 800  Level Houston Center
09:36PM 29.9675 -95.3139 71° East 193 222 1,500 1,860 Climbing Houston Center
09:37PM 30.0333 -95.2986 11° North 253 291 3,700 1,140 Climbing Houston Center
09:39PM 30.2794 -95.0900 28° Northeast  Level FlightAware Approximate
09:39PM 30.1139 -95.2775 13° North 264 304 4,000  Level Houston Center
09:40PM 30.3820 -95.0145 35° Northeast  Level FlightAware Approximate
09:40PM 30.1856 -95.2417 23° Northeast 277 319 6,100  Level Houston Center
09:41PM 30.4793 -94.9305 30° Northeast  Level FlightAware Approximate
09:41PM 30.2408 -95.1861 41° Northeast 286 329 9,300  Level Houston Center
09:42PM 30.2983 -95.1242 43° Northeast 283 326 12,300 2,400 Climbing Houston Center
09:43PM 30.3569 -95.0586 44° Northeast 289 333 14,300 1,020 Climbing Houston Center
09:44PM 30.4333 -94.9836 40° Northeast 331 381 14,500 780 Climbing Houston Center
09:45PM 30.5286 -94.9108 33° Northeast 378 435 16,000 1,860 Climbing Houston Center
09:46PM 30.6256 -94.8358 34° Northeast 402 463 18,300 1,920 Climbing Houston Center
09:47PM 30.7239 -94.7606 33° Northeast 414 476 20,000 1,620 Climbing Houston Center
09:48PM 30.8439 -94.6681 33° Northeast 425 489 21,700 1,380 Climbing Houston Center
09:49PM 30.9469 -94.5875 34° Northeast 436 502 22,900 1,200 Climbing Houston Center
09:50PM 31.0547 -94.5053 33° Northeast 459 528 24,200 1,200 Climbing Houston Center
09:51PM 31.1625 -94.4208 34° Northeast 470 541 25,400 1,260 Climbing Houston Center
09:52PM 31.2719 -94.3358 34° Northeast 475 547 26,800 1,320 Climbing Houston Center
09:53PM 31.3822 -94.2497 34° Northeast 478 550 28,100 1,440 Climbing Houston Center
09:54PM 31.4922 -94.1644 33° Northeast 477 549 29,800 1,380 Climbing Houston Center
09:55PM 31.5986 -94.0808 34° Northeast 469 540 31,000 1,080 Climbing Houston Center
09:56PM 31.7286 -93.9792 34° Northeast 468 539 32,000 480 Climbing Houston Center
09:57PM 31.8392 -93.8911 34° Northeast 473 544 32,000  Level Houston Center
09:58PM 31.9458 -93.8067 34° Northeast 464 534 32,000 240 Level Houston Center
09:59PM 32.0525 -93.7206 34° Northeast 462 532 32,600 780 Climbing Houston Center
10:00PM 32.1569 -93.6389 33° Northeast 460 529 33,600 960 Climbing Houston Center
10:00PM 32.1811 -93.6114 44° Northeast 469 540 33,900 960 Climbing Fort Worth Center
10:01PM 32.2911 -93.5256 33° Northeast 464 534 34,900 1,200 Climbing Fort Worth Center
10:02PM 32.3950 -93.4400 35° Northeast 459 528 36,400 960 Climbing Fort Worth Center
10:03PM 32.4986 -93.3567 34° Northeast 459 528 36,900 300 Climbing Fort Worth Center
10:04PM 32.6067 -93.2706 34° Northeast 459 528 37,000  Climbing Fort Worth Center
10:07PM 32.8597 -93.0703 34° Northeast 463 533 37,000  Level Memphis Center
10:08PM 32.9639 -92.9819 35° Northeast 458 527 37,000 -60 Level Memphis Center
10:09PM 33.0700 -92.9006 33° Northeast 453 521 36,900  Descending Memphis Center
10:10PM 33.1761 -92.8119 35° Northeast 453 521 37,000  Climbing Memphis Center
10:11PM 33.2822 -92.7253 34° Northeast 460 529 37,000  Level Memphis Center
10:12PM 33.3900 -92.6486 31° Northeast 460 529 37,000  Level Memphis Center
10:13PM 33.5058 -92.5869 24° Northeast 448 516 37,000 -60 Level Memphis Center
10:14PM 33.6217 -92.5275 23° Northeast 443 510 36,900 -60 Descending Memphis Center
10:15PM 33.7356 -92.4681 23° Northeast 443 510 36,900  Level Memphis Center
10:16PM 33.8514 -92.4056 24° Northeast 443 510 37,000  Climbing Memphis Center
10:17PM 33.9650 -92.3458 24° Northeast 443 510 37,000  Level Memphis Center
10:18PM 34.0556 -92.2978 24° Northeast 443 510 37,000  Level Memphis Center
10:19PM 34.1756 -92.2225 27° Northeast 443 510 37,000  Level Memphis Center
10:20PM 34.2731 -92.1217 41° Northeast 448 516 37,000  Level Memphis Center
10:21PM 34.3311 -91.9844 63° Northeast 444 511 37,000 -60 Level Memphis Center
10:22PM 34.3789 -91.8444 68° East 436 502 36,900  Descending Memphis Center
10:23PM 34.4328 -91.6917 67° East 441 507 37,000  Climbing Memphis Center
10:24PM 34.4822 -91.5564 66° East 436 502 37,000  Level Memphis Center
10:25PM 34.5314 -91.4186 67° East 436 502 37,000  Level Memphis Center
10:26PM 34.5764 -91.2803 68° East 436 502 37,000  Level Memphis Center
10:27PM 34.6253 -91.1419 67° East 436 502 37,000  Level Memphis Center
10:28PM 34.6678 -91.0161 68° East 436 502 37,000  Level Memphis Center
10:29PM 34.7164 -90.8800 66° East 431 496 37,000  Level Memphis Center
10:30PM 34.7628 -90.7389 68° East 438 504 37,000  Level Memphis Center
10:31PM 34.8111 -90.6000 67° East 438 504 37,000  Level Memphis Center
10:32PM 34.8572 -90.4633 68° East 433 498 37,000 -60 Level Memphis Center
10:33PM 34.9092 -90.3142 67° East 433 498 36,900 -60 Descending Memphis Center
10:34PM 34.9550 -90.1747 68° East 433 498 36,900  Level Memphis Center
10:35PM 35.0028 -90.0403 67° East 433 498 36,900  Level Memphis Center
10:36PM 35.0544 -89.8978 66° East 438 504 37,000  Climbing Memphis Center
10:37PM 35.1039 -89.7556 67° East 444 511 37,000  Level Memphis Center
10:38PM 35.1469 -89.6308 67° East 439 505 37,000  Level Memphis Center
10:39PM 35.1942 -89.4931 67° East 439 505 37,000  Level Memphis Center
10:40PM 35.2411 -89.3581 67° East 439 505 37,000 -60 Level Memphis Center
10:41PM 35.2878 -89.2175 68° East 439 505 36,900 -60 Descending Memphis Center
10:42PM 35.3344 -89.0844 67° East 432 497 36,900  Level Memphis Center
10:43PM 35.3831 -88.9436 67° East 438 504 37,000  Climbing Memphis Center
10:44PM 35.4275 -88.8181 66° East 438 504 37,000  Level Memphis Center
10:45PM 35.4756 -88.6692 68° East 438 504 37,000  Level Memphis Center
10:46PM 35.5258 -88.5281 66° East 438 504 37,000  Level Memphis Center
10:47PM 35.5736 -88.3839 68° East 438 504 37,000  Level Memphis Center
10:48PM 35.6233 -88.2447 66° East 438 504 37,000 -60 Level Memphis Center
10:49PM 35.6689 -88.1108 67° East 430 495 36,900  Descending Memphis Center
10:50PM 35.7164 -87.9714 67° East 430 495 37,000  Climbing Memphis Center
10:51PM 35.7675 -87.8164 68° East 437 503 37,000 -60 Level Memphis Center
10:52PM 35.8147 -87.6767 67° East 443 510 36,900 -60 Descending Memphis Center
10:53PM 35.8594 -87.5369 68° East 438 504 36,900  Level Memphis Center
10:54PM 35.9064 -87.3969 67° East 443 510 37,000  Climbing Memphis Center
10:55PM 35.9508 -87.2544 69° East 438 504 37,000  Level Memphis Center
10:56PM 35.9972 -87.1114 68° East 438 504 37,000  Level Memphis Center
10:57PM 36.0433 -86.9658 69° East 443 510 37,000  Level Memphis Center
10:58PM 36.0894 -86.8228 68° East 443 510 37,000  Level Memphis Center
10:59PM 36.1350 -86.6717 69° East 460 529 37,000  Level Memphis Center
11:00PM 36.1847 -86.5256 67° East 460 529 37,000  Level Memphis Center
11:01PM 36.2325 -86.3817 68° East 455 524 37,000 -60 Level Memphis Center
11:03PM 36.3278 -86.0944 68° East 458 527 36,900  Descending Indianapolis Center
11:04PM 36.3756 -85.9453 68° East 462 532 37,000  Climbing Indianapolis Center
11:05PM 36.4311 -85.7747 68° East 465 535 37,000  Level Indianapolis Center
11:06PM 36.4756 -85.6261 70° East 460 529 37,000 -60 Level Indianapolis Center
11:07PM 36.5233 -85.4764 68° East 464 534 36,900 -60 Descending Indianapolis Center
11:08PM 36.5694 -85.3278 69° East 461 531 36,900  Level Indianapolis Center
11:09PM 36.6156 -85.1789 69° East 460 529 36,900  Level Indianapolis Center
11:10PM 36.6611 -85.0286 69° East 463 533 36,900  Level Indianapolis Center
11:11PM 36.7083 -84.8769 69° East 467 537 37,000  Climbing Indianapolis Center
11:12PM 36.7547 -84.7239 69° East 471 542 37,000  Level Indianapolis Center
11:13PM 36.8006 -84.5694 70° East 474 545 37,000  Level Indianapolis Center
11:14PM 36.8472 -84.4161 69° East 476 548 37,000  Level Indianapolis Center
11:15PM 36.9025 -84.2339 69° East 480 552 37,000  Level Indianapolis Center
11:16PM 36.9483 -84.0781 70° East 479 551 37,000 -60 Level Indianapolis Center
11:17PM 36.9958 -83.9225 69° East 479 551 36,900 -60 Descending Indianapolis Center
11:18PM 37.0439 -83.7653 69° East 483 556 36,900  Level Indianapolis Center
11:19PM 37.0892 -83.6036 71° East 493 567 37,000  Climbing Indianapolis Center
11:20PM 37.1372 -83.4417 70° East 493 567 37,000  Level Indianapolis Center
11:21PM 37.1844 -83.2778 70° East 498 573 37,000 -60 Level Indianapolis Center
11:22PM 37.2322 -83.1119 70° East 501 577 36,900 -60 Descending Indianapolis Center
11:23PM 37.2797 -82.9450 70° East 502 578 36,900  Level Indianapolis Center
11:24PM 37.3278 -82.7764 70° East 507 583 37,000  Climbing Indianapolis Center
11:25PM 37.3753 -82.6089 70° East 505 581 37,000  Level Indianapolis Center
11:26PM 37.4308 -82.4139 70° East 505 581 37,000  Level Indianapolis Center
11:27PM 37.4781 -82.2461 70° East 507 583 37,000 -60 Level Indianapolis Center
11:28PM 37.5236 -82.0781 71° East 506 582 36,900 -60 Descending Indianapolis Center
11:29PM 37.5694 -81.9094 71° East 508 585 36,900  Level Indianapolis Center
11:30PM 37.6164 -81.7397 71° East 510 587 36,900  Level Indianapolis Center
11:31PM 37.6622 -81.5678 71° East 515 593 37,000  Climbing Indianapolis Center
11:32PM 37.7100 -81.3939 71° East 513 590 37,000  Level Indianapolis Center
11:33PM 37.7525 -81.2289 72° East 510 587 37,000  Level Indianapolis Center
11:34PM 37.8011 -81.0650 69° East 510 587 37,000 -60 Level Indianapolis Center
11:35PM 37.8653 -80.8842 66° East 510 587 36,900  Descending Indianapolis Center
11:36PM 37.9233 -80.7203 66° East 511 588 37,000  Climbing Indianapolis Center
11:38PM 37.9811 -80.5567 66° East 512 589 36,900  Descending Indianapolis Center
11:38PM 38.0042 -80.4961 64° Northeast 511 588 37,000  Climbing Washington Center
11:39PM 38.0628 -80.3339 65° Northeast 511 588 36,900  Descending Washington Center
11:40PM 38.1236 -80.1636 66° East 511 588 37,000  Climbing Washington Center
11:41PM 38.1819 -79.9981 66° East 511 588 37,000 -240 Level Washington Center
11:42PM 38.2494 -79.8089 66° East 516 594 36,600 -1,140 Descending Washington Center
11:43PM 38.3094 -79.6403 66° East 516 594 34,800 -1,980 Descending Washington Center
11:44PM 38.3669 -79.4739 66° East 516 594 32,700 -2,100 Descending Washington Center
11:45PM 38.4203 -79.3097 67° East 510 587 30,700 -1,920 Descending Washington Center
11:46PM 38.4544 -79.1444 75° East 497 572 28,800 -1,920 Descending Washington Center
11:47PM 38.4794 -78.9997 78° East 479 551 26,900 -1,920 Descending Washington Center
11:48PM 38.5044 -78.8444 78° East 466 536 25,000 -1,920 Descending Washington Center
11:49PM 38.5275 -78.6914 79° East 445 512 23,100 -1,980 Descending Washington Center
11:50PM 38.5497 -78.5436 79° East 433 498 21,100 -2,040 Descending Washington Center
11:51PM 38.5742 -78.3961 78° East 427 491 19,200 -2,040 Descending Washington Center
11:52PM 38.5983 -78.2533 78° East 422 486 17,100 -1,680 Descending Washington Center
11:53PM 38.6386 -78.1272 68° East 397 457 15,800 -1,320 Descending Washington Center
11:54PM 38.6786 -78.0011 68° East 385 443 14,500 -1,200 Descending Washington Center
11:55PM 38.7144 -77.8850 68° East 362 417 13,500 -1,020 Descending Washington Center
11:56PM 38.7619 -77.7881 58° Northeast 334 384 12,500 -1,200 Descending Washington Center
11:57PM 38.8156 -77.7069 50° Northeast 309 356 11,100 -1,380 Descending Washington Center
11:58PM 38.8547 -77.6097 63° Northeast 297 342 9,900 -1,260 Descending Washington Center
11:59PM 38.8919 -77.5011 66° East 297 342 8,600 -1,260 Descending Washington Center
12:00AM 38.9000 -77.4167 83° East 306 352 7,600 -1,200 Descending Potomac TRACON
12:01AM 38.8500 -77.3167 123° Southeast 295 339 6,500 -1,440 Descending Potomac TRACON
12:02AM 38.8000 -77.2333 128° Southeast 303 349 4,700 -1,500 Descending Potomac TRACON
12:03AM 38.7500 -77.1667 134° Southeast 273 314 3,500 -1,200 Descending Potomac TRACON
12:04AM 38.7500 -77.1000 90° East 213 245 2,300 -1,200 Descending Potomac TRACON